Time;durP1;ratioP1;P1;durP2;ratioP2;P2;SDS_P1;SDS_P2;PMS_P1;PMS_P2;Temp;Humidity;BMP_temperature;BMP_pressure;BME280_temperature;BME280_humidity;BME280_pressure;Samples;Min_cycle;Max_cycle;Signal;HPM_P1;HPM_P2
2022/01/02 00:00:11;;;;;;;;;;;;;;;14.83;71.75;101386.63;1057665;28;617;-58
2022/01/02 00:01:02;;;;;;;;;;;;;;;14.81;72.26;101377.81;1057559;28;730;-59
2022/01/02 00:01:52;;;;;;;;;;;;;;;14.81;72.14;101383.19;1057622;28;653;-59
2022/01/02 00:02:43;;;;;;;;;;;;;;;14.82;72.09;101390.25;1057780;28;688;-59
2022/01/02 00:03:34;;;;;;;;;;;;;;;14.83;71.88;101383.94;1057560;28;739;-59
2022/01/02 00:04:25;;;;;;;;;;;;;;;14.82;71.55;101390.25;1057759;28;676;-59
2022/01/02 00:05:15;;;;;;;;;;;;;;;14.81;71.77;101375.13;1057649;28;911;-58
2022/01/02 00:06:05;;;;;;;;;;;;;;;14.82;71.58;101382.22;1057653;28;761;-59
2022/01/02 00:06:56;;;;;;;;;;;;;;;14.80;72.23;101382.31;1057470;28;1961;-59
2022/01/02 00:07:46;;;;;;;;;;;;;;;14.80;71.88;101379.63;1057770;28;780;-58
2022/01/02 00:08:37;;;;;;;;;;;;;;;14.80;71.75;101374.28;1058708;28;621;-58
2022/01/02 00:09:27;;;;;;;;;;;;;;;14.80;71.58;101382.31;1058483;28;1010;-58
2022/01/02 00:10:17;;;;;;;;;;;;;;;14.82;72.45;101382.22;1058506;28;751;-59
2022/01/02 00:11:08;;;;;;;;;;;;;;;14.80;71.56;101371.59;1058419;28;649;-59
2022/01/02 00:11:58;;;;;;;;;;;;;;;14.82;71.79;101376.84;1058470;28;684;-59
2022/01/02 00:12:49;;;;;;;;;;;;;;;14.82;71.62;101369.66;1059682;27;794;-59
2022/01/02 00:13:39;;;;;;;;;;;;;;;14.80;71.60;101370.72;1057772;28;747;-59
2022/01/02 00:14:30;;;;;;;;;;;;;;;14.80;71.78;101366.22;1058543;28;665;-59
2022/01/02 00:15:20;;;;;;;;;;;;;;;14.79;71.61;101364.50;1058369;28;651;-59
2022/01/02 00:16:11;;;;;;;;;;;;;;;14.80;72.20;101362.69;1059521;27;951;-59
2022/01/02 00:17:02;;;;;;;;;;;;;;;14.80;72.26;101368.06;1058420;28;597;-58
2022/01/02 00:17:52;;;;;;;;;;;;;;;14.80;72.18;101368.91;1058896;28;944;-59
2022/01/02 00:18:51;;;;;;;;;;;;;;;14.80;71.96;101365.38;1058069;28;645;-59
2022/01/02 00:19:45;;;;;;;;;;;;;;;14.80;71.89;101368.91;1058498;28;754;-59
2022/01/02 00:20:45;;;;;;;;;;;;;;;14.80;71.63;101370.72;1058626;28;855;-59
2022/01/02 00:21:40;;;;;;;;;;;;;;;14.79;72.34;101361.81;1055981;27;620;-59
2022/01/02 00:22:35;;;;;;;;;;;;;;;14.79;72.02;101364.50;1054376;28;637;-59
2022/01/02 00:23:30;;;;;;;;;;;;;;;14.79;71.61;101361.81;1054303;28;697;-59
2022/01/02 00:24:21;;;;;;;;;;;;;;;14.80;72.16;101360.00;1054295;28;889;-60
2022/01/02 00:25:23;;;;;;;;;;;;;;;14.78;71.47;101357.44;1054811;28;676;-59
2022/01/02 00:26:17;;;;;;;;;;;;;;;14.79;72.01;101353.78;1054143;28;831;-59
2022/01/02 00:27:08;;;;;;;;;;;;;;;14.78;71.85;101354.75;1054211;28;716;-59
2022/01/02 00:27:58;;;;;;;;;;;;;;;14.79;72.19;101353.78;1054400;28;708;-59
2022/01/02 00:28:48;;;;;;;;;;;;;;;14.78;71.92;101346.69;1054932;28;688;-59
2022/01/02 00:29:39;;;;;;;;;;;;;;;14.78;71.99;101352.06;1055236;28;652;-59
2022/01/02 00:30:29;;;;;;;;;;;;;;;14.77;71.60;101344.97;1055344;28;834;-59
2022/01/02 00:31:20;;;;;;;;;;;;;;;14.79;72.03;101343.03;1055248;28;1047;-59
2022/01/02 00:32:10;;;;;;;;;;;;;;;14.78;72.08;101341.34;1054727;28;680;-59
2022/01/02 00:33:00;;;;;;;;;;;;;;;14.77;71.61;101328.88;1054635;28;641;-59
2022/01/02 00:33:51;;;;;;;;;;;;;;;14.79;71.98;101328.78;1054202;28;711;-58
2022/01/02 00:34:41;;;;;;;;;;;;;;;14.78;71.80;101319.88;1054660;28;870;-59
2022/01/02 00:35:32;;;;;;;;;;;;;;;14.78;71.61;101308.28;1054831;28;684;-59
2022/01/02 00:36:22;;;;;;;;;;;;;;;14.78;71.82;101319.88;1054186;28;676;-59
2022/01/02 00:37:13;;;;;;;;;;;;;;;14.78;72.01;101313.66;1054304;28;641;-59
2022/01/02 00:38:03;;;;;;;;;;;;;;;14.78;72.08;101313.66;1055908;28;638;-59
2022/01/02 00:38:53;;;;;;;;;;;;;;;14.78;72.06;101316.31;1055214;28;825;-60
2022/01/02 00:39:44;;;;;;;;;;;;;;;14.78;71.53;101313.66;1054051;28;686;-58
2022/01/02 00:40:34;;;;;;;;;;;;;;;14.77;71.66;101312.78;1054146;28;777;-59
2022/01/02 00:41:25;;;;;;;;;;;;;;;14.78;71.54;101319.88;1054180;28;668;-59
2022/01/02 00:42:15;;;;;;;;;;;;;;;14.78;72.19;101310.97;1055985;27;625;-58
2022/01/02 00:43:06;;;;;;;;;;;;;;;14.78;71.83;101324.38;1055013;28;835;-59
2022/01/02 00:43:56;;;;;;;;;;;;;;;14.77;71.63;101310.09;1054672;28;664;-59
2022/01/02 00:44:46;;;;;;;;;;;;;;;14.78;71.85;101308.28;1054220;28;791;-59
2022/01/02 00:45:37;;;;;;;;;;;;;;;14.77;71.79;101307.41;1054826;28;812;-59
2022/01/02 00:46:27;;;;;;;;;;;;;;;14.77;71.60;101307.41;1054010;28;1073;-58
2022/01/02 00:47:18;;;;;;;;;;;;;;;14.77;71.89;101312.78;1054047;28;899;-59
2022/01/02 00:48:08;;;;;;;;;;;;;;;14.78;71.69;101317.19;1054186;28;638;-59
2022/01/02 00:48:58;;;;;;;;;;;;;;;14.78;71.54;101311.81;1054651;28;747;-59
2022/01/02 00:49:49;;;;;;;;;;;;;;;14.77;71.89;101310.09;1054207;28;1231;-59
2022/01/02 00:50:39;;;;;;;;;;;;;;;14.78;72.04;101310.97;1054806;28;652;-59
2022/01/02 00:51:30;;;;;;;;;;;;;;;14.77;72.22;101307.41;1054028;28;864;-59
2022/01/02 00:52:20;;;;;;;;;;;;;;;14.77;71.62;101295.84;1055071;28;695;-59
2022/01/02 00:53:11;;;;;;;;;;;;;;;14.76;72.51;101300.34;1054938;28;825;-59
2022/01/02 00:54:01;;;;;;;;;;;;;;;14.77;71.59;101311.94;1055358;28;684;-58
2022/01/02 00:54:51;;;;;;;;;;;;;;;14.77;71.81;101307.41;1053924;28;693;-59
2022/01/02 00:55:42;;;;;;;;;;;;;;;14.77;71.70;101318.16;1055081;28;867;-58
2022/01/02 00:56:32;;;;;;;;;;;;;;;14.77;71.49;101317.28;1055426;28;694;-59
2022/01/02 00:57:23;;;;;;;;;;;;;;;14.77;72.13;101323.53;1054676;28;849;-59
2022/01/02 00:58:13;;;;;;;;;;;;;;;14.76;71.93;101327.16;1054754;28;647;-58
2022/01/02 00:59:04;;;;;;;;;;;;;;;14.75;71.88;101320.09;1054630;28;693;-59
2022/01/02 00:59:54;;;;;;;;;;;;;;;14.76;71.84;101320.94;1054659;28;778;-59
2022/01/02 01:00:44;;;;;;;;;;;;;;;14.75;71.93;101325.47;1055255;28;664;-59
2022/01/02 01:01:35;;;;;;;;;;;;;;;14.75;72.09;101311.19;1054207;28;842;-59
2022/01/02 01:02:25;;;;;;;;;;;;;;;14.76;71.91;101315.59;1054637;28;671;-59
2022/01/02 01:03:16;;;;;;;;;;;;;;;14.76;71.99;101318.25;1054681;28;833;-58
2022/01/02 01:04:06;;;;;;;;;;;;;;;14.75;71.64;101317.41;1054512;28;845;-59
2022/01/02 01:04:57;;;;;;;;;;;;;;;14.75;71.98;101314.72;1054132;28;659;-59
2022/01/02 01:05:47;;;;;;;;;;;;;;;14.76;72.15;101308.38;1054529;28;749;-59
2022/01/02 01:06:39;;;;;;;;;;;;;;;14.74;72.21;101302.28;1054050;28;1898;-58
2022/01/02 01:07:29;;;;;;;;;;;;;;;14.73;71.96;101297.88;1053979;28;650;-59
2022/01/02 01:08:20;;;;;;;;;;;;;;;14.72;72.27;101293.50;1054454;28;688;-59
2022/01/02 01:09:10;;;;;;;;;;;;;;;14.72;71.73;101288.13;1054413;28;663;-59
2022/01/02 01:10:03;;;;;;;;;;;;;;;14.73;71.70;101294.34;1054474;28;850;-58
2022/01/02 01:10:53;;;;;;;;;;;;;;;14.73;72.13;101289.84;1054039;28;662;-58
2022/01/02 01:11:43;;;;;;;;;;;;;;;14.72;72.19;101293.50;1054118;28;696;-59
2022/01/02 01:12:34;;;;;;;;;;;;;;;14.73;71.92;101295.19;1054165;28;673;-58
2022/01/02 01:13:24;;;;;;;;;;;;;;;14.73;71.65;101297.88;1054128;28;789;-58
2022/01/02 01:14:15;;;;;;;;;;;;;;;14.73;72.26;101288.97;1054066;28;898;-58
2022/01/02 01:15:05;;;;;;;;;;;;;;;14.73;71.68;101287.16;1053957;28;646;-59
2022/01/02 01:15:55;;;;;;;;;;;;;;;14.74;72.21;101286.19;1054087;28;672;-59
2022/01/02 01:16:46;;;;;;;;;;;;;;;14.73;72.11;101289.84;1054613;28;680;-59
2022/01/02 01:17:37;;;;;;;;;;;;;;;14.72;71.95;101288.13;1054633;28;633;-59
2022/01/02 01:18:27;;;;;;;;;;;;;;;14.73;71.70;101287.16;1053946;28;921;-58
2022/01/02 01:19:17;;;;;;;;;;;;;;;14.74;72.01;101280.81;1055376;28;620;-59
2022/01/02 01:20:08;;;;;;;;;;;;;;;14.74;72.16;101288.88;1055084;28;676;-58
2022/01/02 01:20:58;;;;;;;;;;;;;;;14.73;71.67;101288.97;1054458;28;1628;-58
2022/01/02 01:21:49;;;;;;;;;;;;;;;14.73;71.89;101281.78;1058210;28;715;-58
2022/01/02 01:22:39;;;;;;;;;;;;;;;14.73;71.81;101284.47;1059327;27;863;-59
2022/01/02 01:23:30;;;;;;;;;;;;;;;14.74;71.63;101279.97;1058290;28;650;-59
2022/01/02 01:24:20;;;;;;;;;;;;;;;14.74;72.01;101280.81;1058142;28;633;-59
2022/01/02 01:25:16;;;;;;;;;;;;;;;14.74;71.85;101283.50;1058269;28;632;-59
2022/01/02 01:26:09;;;;;;;;;;;;;;;14.74;71.35;101285.31;1058216;28;711;-59
2022/01/02 01:27:00;;;;;;;;;;;;;;;14.74;71.55;101282.66;1057961;28;1874;-59
2022/01/02 01:27:51;;;;;;;;;;;;;;;14.73;72.11;101281.78;1058079;28;703;-59
2022/01/02 01:28:41;;;;;;;;;;;;;;;14.73;71.81;101273.75;1059442;27;802;-60
2022/01/02 01:29:34;;;;;;;;;;;;;;;14.73;71.67;101280.94;1058330;28;641;-59
2022/01/02 01:30:24;;;;;;;;;;;;;;;14.72;71.81;101277.38;1058828;28;709;-59
2022/01/02 01:31:15;;;;;;;;;;;;;;;14.73;71.81;101267.50;1058140;28;947;-59
2022/01/02 01:32:05;;;;;;;;;;;;;;;14.73;71.65;101271.06;1059318;27;643;-59
2022/01/02 01:32:55;;;;;;;;;;;;;;;14.72;71.87;101265.81;1058182;28;845;-59
2022/01/02 01:33:46;;;;;;;;;;;;;;;14.73;72.00;101260.31;1058110;28;633;-59
2022/01/02 01:34:36;;;;;;;;;;;;;;;14.72;71.87;101261.28;1057995;28;657;-59
2022/01/02 01:35:27;;;;;;;;;;;;;;;14.72;71.62;101263.13;1058217;28;1194;-59
2022/01/02 01:36:17;;;;;;;;;;;;;;;14.71;72.26;101256.91;1059434;27;613;-60
2022/01/02 01:37:08;;;;;;;;;;;;;;;14.71;71.54;101262.25;1058116;28;725;-59
2022/01/02 01:37:58;;;;;;;;;;;;;;;14.71;71.90;101259.59;1058119;28;712;-59
2022/01/02 01:38:48;;;;;;;;;;;;;;;14.71;71.91;101253.34;1058203;28;707;-60
2022/01/02 01:39:39;;;;;;;;;;;;;;;14.71;72.10;101253.34;1058268;28;644;-59
2022/01/02 01:40:29;;;;;;;;;;;;;;;14.72;72.10;101252.38;1058202;27;2189;-59
2022/01/02 01:41:20;;;;;;;;;;;;;;;14.71;71.68;101246.16;1057903;28;808;-59
2022/01/02 01:42:12;;;;;;;;;;;;;;;14.71;72.19;101238.13;1058065;28;680;-59
2022/01/02 01:43:03;;;;;;;;;;;;;;;14.70;71.86;101223.00;1057453;28;680;-59
2022/01/02 01:44:07;;;;;;;;;;;;;;;14.70;71.58;101217.63;1057700;28;677;-59
2022/01/02 01:45:30;;;;;;;;;;;;;;;14.70;71.80;101211.41;1052949;28;660;-59
2022/01/02 01:46:13;;;;;;;;;;;;;;;14.69;72.16;101202.50;1052984;28;1077;-60
2022/01/02 01:47:04;;;;;;;;;;;;;;;14.70;72.12;101203.34;1058026;28;1910;-60
2022/01/02 01:47:54;;;;;;;;;;;;;;;14.71;72.22;101210.44;1058088;28;858;-59
2022/01/02 01:48:45;;;;;;;;;;;;;;;14.69;71.71;101207.88;1058203;28;735;-59
2022/01/02 01:49:35;;;;;;;;;;;;;;;14.70;71.63;101198.84;1057948;28;1306;-59
2022/01/02 01:50:25;;;;;;;;;;;;;;;14.71;72.04;101194.34;1058244;28;620;-59
2022/01/02 01:51:16;;;;;;;;;;;;;;;14.70;72.33;101193.50;1058240;28;757;-59
2022/01/02 01:52:06;;;;;;;;;;;;;;;14.70;71.91;101192.63;1057985;28;773;-59
2022/01/02 01:52:57;;;;;;;;;;;;;;;14.70;71.77;101182.75;1058081;28;634;-59
2022/01/02 01:53:47;;;;;;;;;;;;;;;14.71;72.08;101175.56;1057979;28;689;-59
2022/01/02 01:54:37;;;;;;;;;;;;;;;14.71;71.42;101175.56;1058169;28;627;-59
2022/01/02 01:55:28;;;;;;;;;;;;;;;14.71;72.05;101178.25;1058154;28;666;-59
2022/01/02 01:56:18;;;;;;;;;;;;;;;14.70;71.83;101177.38;1058012;28;653;-59
2022/01/02 01:57:09;;;;;;;;;;;;;;;14.69;71.49;101181.03;1058091;28;685;-59
2022/01/02 01:57:59;;;;;;;;;;;;;;;14.69;71.64;101181.03;1057333;28;797;-59
2022/01/02 01:58:49;;;;;;;;;;;;;;;14.70;71.45;101192.63;1058066;28;699;-59
2022/01/02 01:59:40;;;;;;;;;;;;;;;14.71;71.40;101178.25;1058722;28;696;-59
2022/01/02 02:00:33;;;;;;;;;;;;;;;14.71;71.48;101184.47;1057976;28;730;-59
2022/01/02 02:01:24;;;;;;;;;;;;;;;14.71;71.68;101184.47;1057577;28;968;-59
2022/01/02 02:02:14;;;;;;;;;;;;;;;14.70;71.58;101180.06;1057973;28;827;-59
2022/01/02 02:03:05;;;;;;;;;;;;;;;14.71;71.92;101178.25;1058059;28;818;-59
2022/01/02 02:03:55;;;;;;;;;;;;;;;14.70;71.98;101182.75;1058660;28;679;-59
2022/01/02 02:04:45;;;;;;;;;;;;;;;14.70;71.58;101198.00;1058102;28;677;-59
2022/01/02 02:05:36;;;;;;;;;;;;;;;14.71;71.58;101197.88;1058098;28;664;-59
2022/01/02 02:06:26;;;;;;;;;;;;;;;14.71;71.99;101194.34;1057861;28;805;-59
2022/01/02 02:07:17;;;;;;;;;;;;;;;14.71;71.74;101200.56;1057601;28;724;-59
2022/01/02 02:08:09;;;;;;;;;;;;;;;14.70;71.46;101196.16;1057347;28;704;-59
2022/01/02 02:09:01;;;;;;;;;;;;;;;14.71;71.81;101186.28;1057580;28;712;-59
2022/01/02 02:10:11;;;;;;;;;;;;;;;14.72;71.79;101196.06;1057567;28;671;-59
2022/01/02 02:11:03;;;;;;;;;;;;;;;14.72;71.50;101193.38;1057296;28;717;-59
2022/01/02 02:11:58;;;;;;;;;;;;;;;14.71;71.81;101194.34;1057357;28;688;-59
2022/01/02 02:12:49;;;;;;;;;;;;;;;14.69;71.84;101191.78;1057289;28;837;-59
2022/01/02 02:13:39;;;;;;;;;;;;;;;14.70;71.60;101185.44;1057925;28;777;-59
2022/01/02 02:14:30;;;;;;;;;;;;;;;14.69;71.85;101183.72;1057972;28;779;-59
2022/01/02 02:15:20;;;;;;;;;;;;;;;14.69;71.40;101183.72;1057932;28;758;-62
2022/01/02 02:16:11;;;;;;;;;;;;;;;14.68;71.88;101174.00;1059052;28;965;-59
2022/01/02 02:17:01;;;;;;;;;;;;;;;14.67;72.16;101177.66;1057843;28;782;-59
2022/01/02 02:17:51;;;;;;;;;;;;;;;14.67;71.94;101168.75;1058001;28;669;-59
2022/01/02 02:18:42;;;;;;;;;;;;;;;14.67;71.72;101172.28;1053083;28;736;-59
2022/01/02 02:19:33;;;;;;;;;;;;;;;14.67;71.95;101166.91;1053562;28;622;-59
2022/01/02 02:20:23;;;;;;;;;;;;;;;14.68;71.56;101163.28;1057846;28;712;-59
2022/01/02 02:21:13;;;;;;;;;;;;;;;14.68;71.57;101159.72;1057867;28;1602;-59
2022/01/02 02:22:06;;;;;;;;;;;;;;;14.67;71.93;101161.56;1057963;28;625;-59
2022/01/02 02:22:56;;;;;;;;;;;;;;;14.68;71.78;101165.09;1057828;28;776;-59
2022/01/02 02:23:47;;;;;;;;;;;;;;;14.66;71.67;101165.22;1058125;28;673;-59
2022/01/02 02:24:37;;;;;;;;;;;;;;;14.68;71.47;101163.28;1057930;28;618;-59
2022/01/02 02:25:27;;;;;;;;;;;;;;;14.67;71.58;101166.91;1058013;28;692;-59
2022/01/02 02:26:18;;;;;;;;;;;;;;;14.67;71.95;101164.25;1058093;28;720;-59
2022/01/02 02:27:08;;;;;;;;;;;;;;;14.68;72.06;101170.47;1059053;27;735;-59
2022/01/02 02:27:59;;;;;;;;;;;;;;;14.67;71.97;101160.69;1057963;28;629;-59
2022/01/02 02:28:49;;;;;;;;;;;;;;;14.68;71.75;101163.28;1057772;28;653;-59
2022/01/02 02:29:40;;;;;;;;;;;;;;;14.68;71.95;101167.78;1058051;28;1432;-60
2022/01/02 02:30:30;;;;;;;;;;;;;;;14.66;71.96;101159.84;1061918;27;1343;-60
2022/01/02 02:31:20;;;;;;;;;;;;;;;14.66;72.03;101151.81;1061807;27;938;-59
2022/01/02 02:32:11;;;;;;;;;;;;;;;14.66;72.13;101159.84;1062253;27;614;-59
2022/01/02 02:33:01;;;;;;;;;;;;;;;14.65;71.73;101155.44;1061535;27;1282;-59
2022/01/02 02:33:52;;;;;;;;;;;;;;;14.64;71.68;101156.44;1062108;27;672;-59
2022/01/02 02:34:44;;;;;;;;;;;;;;;14.64;71.97;101137.66;1062259;27;676;-59
2022/01/02 02:35:34;;;;;;;;;;;;;;;14.64;71.75;101136.78;1062683;27;787;-59
2022/01/02 02:36:24;;;;;;;;;;;;;;;14.65;71.74;101130.47;1062261;27;802;-59
2022/01/02 02:37:15;;;;;;;;;;;;;;;14.64;71.99;101129.59;1062254;27;610;-59
2022/01/02 02:38:05;;;;;;;;;;;;;;;14.66;71.50;101138.38;1062207;27;713;-60
2022/01/02 02:38:56;;;;;;;;;;;;;;;14.65;71.91;101135.81;1062228;27;755;-59
2022/01/02 02:39:46;;;;;;;;;;;;;;;14.65;71.71;101136.69;1062092;27;798;-59
2022/01/02 02:40:37;;;;;;;;;;;;;;;14.65;71.82;101128.63;1062195;27;730;-59
2022/01/02 02:41:32;;;;;;;;;;;;;;;14.65;71.89;101130.47;1062114;27;664;-60
2022/01/02 02:43:18;;;;;;;;;;;;;;;14.65;71.61;101131.31;1062208;27;794;-59
2022/01/02 02:43:56;;;;;;;;;;;;;;;14.64;71.92;101137.66;1063337;27;1549;-60
2022/01/02 02:44:56;;;;;;;;;;;;;;;14.64;71.67;101137.66;1058185;28;719;-60
2022/01/02 02:49:14;;;;;;;;;;;;;;;14.64;71.65;101132.28;1062786;27;679;-59
2022/01/02 02:50:04;;;;;;;;;;;;;;;14.65;71.76;101127.78;1062077;27;975;-59
2022/01/02 02:50:55;;;;;;;;;;;;;;;14.62;72.03;101130.69;1062117;27;687;-60
2022/01/02 02:51:56;;;;;;;;;;;;;;;14.63;72.20;101130.56;1063330;27;754;-59
2022/01/02 02:52:47;;;;;;;;;;;;;;;14.62;71.55;101126.19;1062040;27;612;-59
2022/01/02 02:53:38;;;;;;;;;;;;;;;14.63;71.94;101127.03;1062106;27;663;-60
2022/01/02 02:54:30;;;;;;;;;;;;;;;14.62;71.64;101126.19;1062083;27;820;-59
2022/01/02 02:55:30;;;;;;;;;;;;;;;14.63;72.07;101125.22;1062337;27;704;-59
2022/01/02 02:56:24;;;;;;;;;;;;;;;14.62;71.75;101126.19;1061957;27;887;-59
2022/01/02 02:57:14;;;;;;;;;;;;;;;14.63;72.33;101124.34;1062111;27;609;-59
2022/01/02 02:58:27;;;;;;;;;;;;;;;14.61;71.58;101127.16;1062155;27;715;-59
2022/01/02 02:59:15;;;;;;;;;;;;;;;14.63;71.44;101119.84;1062731;27;644;-59
2022/01/02 03:00:05;;;;;;;;;;;;;;;14.63;72.11;101110.94;1062186;27;682;-60
2022/01/02 03:00:56;;;;;;;;;;;;;;;14.62;71.69;101112.78;1062157;27;674;-59
2022/01/02 03:01:46;;;;;;;;;;;;;;;14.63;71.95;101109.13;1063252;27;722;-59
2022/01/02 03:02:37;;;;;;;;;;;;;;;14.64;71.53;101112.66;1062194;27;853;-60
2022/01/02 03:03:27;;;;;;;;;;;;;;;14.62;71.74;101107.41;1062030;27;635;-59
2022/01/02 03:04:18;;;;;;;;;;;;;;;14.63;72.03;101106.44;1062040;27;842;-59
2022/01/02 03:05:08;;;;;;;;;;;;;;;14.62;71.61;101103.88;1061072;27;794;-59
2022/01/02 03:05:58;;;;;;;;;;;;;;;14.62;71.49;101102.03;1062052;27;683;-59
2022/01/02 03:06:49;;;;;;;;;;;;;;;14.61;71.49;101103.00;1061894;27;1937;-60
2022/01/02 03:07:39;;;;;;;;;;;;;;;14.61;71.64;101096.78;1062005;27;609;-59
2022/01/02 03:08:30;;;;;;;;;;;;;;;14.61;72.13;101110.19;1062053;27;675;-60
2022/01/02 03:09:38;;;;;;;;;;;;;;;14.61;71.59;101103.00;1062030;27;687;-59
2022/01/02 03:10:28;;;;;;;;;;;;;;;14.61;71.62;101103.00;1062660;27;680;-60
2022/01/02 03:11:20;;;;;;;;;;;;;;;14.61;72.02;101097.66;1062069;27;712;-59
2022/01/02 03:12:11;;;;;;;;;;;;;;;14.61;72.18;101094.97;1062150;27;799;-59
2022/01/02 03:13:01;;;;;;;;;;;;;;;14.61;71.58;101092.28;1062589;27;834;-59
2022/01/02 03:13:51;;;;;;;;;;;;;;;14.61;71.55;101097.66;1057482;28;627;-59
2022/01/02 03:14:42;;;;;;;;;;;;;;;14.62;71.49;101093.13;1058677;27;710;-60
2022/01/02 03:15:32;;;;;;;;;;;;;;;14.62;71.80;101093.13;1062599;27;850;-59
2022/01/02 03:16:23;;;;;;;;;;;;;;;14.62;71.63;101091.31;1062063;27;989;-60
2022/01/02 03:17:13;;;;;;;;;;;;;;;14.62;71.67;101091.31;1063165;27;920;-60
2022/01/02 03:18:04;;;;;;;;;;;;;;;14.62;71.76;101087.78;1061993;27;669;-59
2022/01/02 03:18:54;;;;;;;;;;;;;;;14.62;71.46;101091.31;1062190;27;664;-60
2022/01/02 03:19:45;;;;;;;;;;;;;;;14.61;72.09;101086.06;1062031;27;938;-59
2022/01/02 03:20:35;;;;;;;;;;;;;;;14.59;72.05;101097.75;1063340;27;699;-60
2022/01/02 03:21:26;;;;;;;;;;;;;;;14.62;71.60;101093.13;1053879;28;867;-60
2022/01/02 03:22:16;;;;;;;;;;;;;;;14.61;71.51;101092.28;1054724;28;661;-59
2022/01/02 03:23:06;;;;;;;;;;;;;;;14.61;71.87;101097.66;1054837;28;633;-60
2022/01/02 03:23:57;;;;;;;;;;;;;;;14.61;71.77;101100.34;1054756;28;677;-59
2022/01/02 03:24:49;;;;;;;;;;;;;;;14.62;71.63;101104.72;1050231;28;648;-60
2022/01/02 03:25:40;;;;;;;;;;;;;;;14.62;71.55;101110.09;1050153;28;903;-59
2022/01/02 03:26:30;;;;;;;;;;;;;;;14.63;72.04;101105.56;1054092;28;629;-59
2022/01/02 03:27:20;;;;;;;;;;;;;;;14.63;72.10;101109.13;1054088;28;737;-59
2022/01/02 03:28:11;;;;;;;;;;;;;;;14.62;72.00;101111.91;1053717;28;685;-59
2022/01/02 03:29:01;;;;;;;;;;;;;;;14.62;71.39;101110.09;1054709;28;653;-59
2022/01/02 03:29:52;;;;;;;;;;;;;;;14.62;71.68;101106.56;1054498;28;660;-59
2022/01/02 03:30:42;;;;;;;;;;;;;;;14.59;71.97;101099.59;1053978;28;632;-59
2022/01/02 03:31:33;;;;;;;;;;;;;;;14.59;72.09;101104.94;1053928;28;991;-60
2022/01/02 03:32:23;;;;;;;;;;;;;;;14.59;71.46;101102.28;1054711;28;707;-59
2022/01/02 03:33:13;;;;;;;;;;;;;;;14.58;71.96;101104.09;1054630;28;643;-60
2022/01/02 03:34:04;;;;;;;;;;;;;;;14.59;72.02;101096.91;1054519;28;704;-59
2022/01/02 03:34:54;;;;;;;;;;;;;;;14.58;71.49;101093.38;1054738;28;687;-59
2022/01/02 03:35:45;;;;;;;;;;;;;;;14.59;71.50;101099.59;1054617;28;659;-59
2022/01/02 03:36:35;;;;;;;;;;;;;;;14.57;72.17;101099.72;1054551;28;805;-59
2022/01/02 03:37:28;;;;;;;;;;;;;;;14.58;71.89;101092.50;1054196;28;613;-59
2022/01/02 03:38:18;;;;;;;;;;;;;;;14.58;71.69;101096.06;1053445;28;888;-59
2022/01/02 03:39:09;;;;;;;;;;;;;;;14.58;71.57;101098.72;1054770;28;712;-59
2022/01/02 03:39:59;;;;;;;;;;;;;;;14.58;71.65;101089.84;1054710;28;851;-59
2022/01/02 03:40:50;;;;;;;;;;;;;;;14.58;71.97;101097.88;1054743;28;718;-60
2022/01/02 03:41:41;;;;;;;;;;;;;;;14.59;71.78;101091.53;1054594;28;749;-59
2022/01/02 03:42:32;;;;;;;;;;;;;;;14.59;71.60;101088.88;1053329;28;980;-59
2022/01/02 03:43:22;;;;;;;;;;;;;;;14.58;72.26;101090.69;1054137;28;818;-59
2022/01/02 03:44:13;;;;;;;;;;;;;;;14.58;71.92;101087.16;1053501;28;937;-59
2022/01/02 03:45:03;;;;;;;;;;;;;;;14.58;72.08;101087.16;1054147;28;617;-59
2022/01/02 03:45:53;;;;;;;;;;;;;;;14.57;71.66;101090.81;1054073;28;651;-59
2022/01/02 03:46:44;;;;;;;;;;;;;;;14.57;72.02;101093.50;1054442;28;1910;-60
2022/01/02 03:47:34;;;;;;;;;;;;;;;14.57;72.05;101078.25;1053495;28;1201;-59
2022/01/02 03:48:25;;;;;;;;;;;;;;;14.56;72.20;101076.53;1054066;28;800;-60
2022/01/02 03:49:15;;;;;;;;;;;;;;;14.54;71.85;101066.91;1054161;28;680;-59
2022/01/02 03:50:06;;;;;;;;;;;;;;;14.55;71.69;101077.50;1054109;28;613;-59
2022/01/02 03:50:56;;;;;;;;;;;;;;;14.53;71.50;101066.03;1053963;28;689;-59
2022/01/02 03:51:46;;;;;;;;;;;;;;;14.54;71.64;101074.94;1053987;28;645;-59
2022/01/02 03:52:37;;;;;;;;;;;;;;;14.54;71.79;101069.59;1054081;28;841;-59
2022/01/02 03:53:27;;;;;;;;;;;;;;;14.54;71.68;101065.06;1054678;28;743;-59
2022/01/02 03:54:18;;;;;;;;;;;;;;;14.54;71.85;101067.75;1054775;28;664;-59
2022/01/02 03:55:08;;;;;;;;;;;;;;;14.54;72.08;101064.22;1054070;28;633;-59
2022/01/02 03:55:59;;;;;;;;;;;;;;;14.54;71.66;101053.50;1054751;28;668;-60
2022/01/02 03:56:51;;;;;;;;;;;;;;;14.54;72.14;101048.13;1054009;28;844;-60
2022/01/02 03:57:42;;;;;;;;;;;;;;;14.55;71.71;101052.53;1053497;28;637;-60
2022/01/02 03:58:32;;;;;;;;;;;;;;;14.55;71.98;101049.84;1054043;28;767;-60
2022/01/02 03:59:23;;;;;;;;;;;;;;;14.55;71.63;101055.19;1054067;28;802;-59
2022/01/02 04:00:13;;;;;;;;;;;;;;;14.57;71.98;101050.56;1054130;28;685;-59
2022/01/02 04:01:03;;;;;;;;;;;;;;;14.56;71.96;101048.88;1054023;28;845;-60
2022/01/02 04:01:54;;;;;;;;;;;;;;;14.54;72.13;101043.63;1054026;28;669;-60
2022/01/02 04:02:44;;;;;;;;;;;;;;;14.55;71.52;101049.84;1054056;28;676;-59
2022/01/02 04:03:35;;;;;;;;;;;;;;;14.55;71.50;101053.38;1054006;28;696;-59
2022/01/02 04:04:26;;;;;;;;;;;;;;;14.55;71.90;101045.34;1053916;28;633;-60
2022/01/02 04:05:17;;;;;;;;;;;;;;;14.55;71.57;101044.47;1053499;28;878;-60
2022/01/02 04:06:07;;;;;;;;;;;;;;;14.54;71.94;101043.63;1054706;28;637;-59
2022/01/02 04:06:58;;;;;;;;;;;;;;;14.54;71.90;101043.63;1054035;28;1898;-60
2022/01/02 04:07:48;;;;;;;;;;;;;;;14.55;71.76;101045.34;1053369;28;712;-60
2022/01/02 04:08:39;;;;;;;;;;;;;;;14.56;71.29;101041.69;1053491;28;760;-60
2022/01/02 04:09:29;;;;;;;;;;;;;;;14.55;72.04;101034.59;1053957;28;951;-60
2022/01/02 04:10:20;;;;;;;;;;;;;;;14.55;71.75;101039.13;1054022;28;729;-60
2022/01/02 04:11:10;;;;;;;;;;;;;;;14.54;71.99;101032.03;1054588;28;656;-59
2022/01/02 04:12:01;;;;;;;;;;;;;;;14.54;71.63;101043.63;1054642;28;941;-60
2022/01/02 04:12:51;;;;;;;;;;;;;;;14.55;71.56;101031.06;1054599;28;680;-59
2022/01/02 04:13:41;;;;;;;;;;;;;;;14.55;71.59;101039.13;1053359;28;713;-60
2022/01/02 04:14:32;;;;;;;;;;;;;;;14.55;72.06;101033.75;1054497;28;651;-59
2022/01/02 04:15:22;;;;;;;;;;;;;;;14.55;71.98;101048.00;1053979;28;740;-60
2022/01/02 04:16:13;;;;;;;;;;;;;;;14.55;72.05;101034.59;1053908;28;1464;-60
2022/01/02 04:17:03;;;;;;;;;;;;;;;14.56;71.59;101035.47;1054073;28;827;-59
2022/01/02 04:17:53;;;;;;;;;;;;;;;14.56;71.91;101041.69;1053872;28;815;-60
2022/01/02 04:18:44;;;;;;;;;;;;;;;14.57;72.27;101042.53;1054115;28;712;-59
2022/01/02 04:19:34;;;;;;;;;;;;;;;14.56;72.08;101040.81;1053392;28;653;-60
2022/01/02 04:20:25;;;;;;;;;;;;;;;14.56;71.41;101040.81;1054046;28;703;-59
2022/01/02 04:21:15;;;;;;;;;;;;;;;14.56;71.70;101039.00;1056879;28;1774;-59
2022/01/02 04:22:05;;;;;;;;;;;;;;;14.55;71.94;101031.06;1057636;28;772;-59
2022/01/02 04:22:56;;;;;;;;;;;;;;;14.56;71.79;101040.81;1057719;28;699;-59
2022/01/02 04:23:46;;;;;;;;;;;;;;;14.54;71.46;101040.09;1057565;28;761;-60
2022/01/02 04:24:37;;;;;;;;;;;;;;;14.55;71.57;101036.44;1057567;28;696;-59
2022/01/02 04:25:27;;;;;;;;;;;;;;;14.55;71.94;101028.38;1057773;28;645;-60
2022/01/02 04:26:17;;;;;;;;;;;;;;;14.55;71.94;101028.38;1057657;28;931;-59
2022/01/02 04:27:08;;;;;;;;;;;;;;;14.56;71.55;101027.41;1057725;28;1895;-59
2022/01/02 04:27:58;;;;;;;;;;;;;;;14.55;71.86;101031.06;1053107;28;960;-60
2022/01/02 04:28:49;;;;;;;;;;;;;;;14.55;71.41;101023.88;1054257;28;770;-59
2022/01/02 04:29:39;;;;;;;;;;;;;;;14.55;71.59;101023.88;1058238;28;597;-60
2022/01/02 04:30:29;;;;;;;;;;;;;;;14.55;71.53;101028.38;1057539;28;872;-59
2022/01/02 04:31:20;;;;;;;;;;;;;;;14.54;71.56;101026.69;1057519;28;1042;-60
2022/01/02 04:32:10;;;;;;;;;;;;;;;14.54;71.56;101019.47;1058212;28;867;-59
2022/01/02 04:33:01;;;;;;;;;;;;;;;14.54;71.41;101008.75;1057599;28;680;-59